»·PEaware :: N54073 KABQ-KSKX

N54073 :: KABQ-KSKX

FLIGHT INFORMATION

Flight Status: Arrived
Operator: Privately registered:
United States
More flights under this callsign
Pilot: Anonymous 27411 (27411)
Aircraft: BEECH AIRCRAFT BARON
(BE58)
More flights by this aircraft type
Origin: KABQ Albuquerque Intl Sunport
United States
Destination: KSKX Taos Regl
United States
More flights between these airports :: More routes between these airports
Route: ABQ V263 SAF V83 TAS
File this flight plan on PilotEdge
Remarks: thank you!
Altitude:
(Current/Filed)
11,000ft
Speed:
(Current/Filed)
175kts
Departed: 07-Jan-22 05:43 PM
Arrived: 07-Jan-22 06:32 PM
Distance/Time
Traveled:
97nm/0:49
Distance/Time
To Go:
Arrived

Flight Plot

Page will automatically refresh every two minutes.

Flight plan parsing failed; only flown route is shown


Map Options




Map Legend


Flown Route
Filed Route
Departure Airport
Arrival Airport
Navaid (VOR, NDB)
Fix

Horizontal Profiles

Position Reports

Time Latitude Longitude Heading Altitude Ground
Speed
07-Jan-22 17:18 35.035985 -106.618587 224 5309ft 0kts
07-Jan-22 17:19 35.035985 -106.618587 224 5309ft 0kts
07-Jan-22 17:20 35.035985 -106.618587 224 5309ft 0kts
07-Jan-22 17:21 35.035985 -106.618587 224 5309ft 0kts
07-Jan-22 17:22 35.035985 -106.618587 224 5309ft 0kts
07-Jan-22 17:23 35.035985 -106.618587 224 5309ft 0kts
07-Jan-22 17:24 35.035985 -106.618587 224 5309ft 0kts
07-Jan-22 17:25 35.035985 -106.618587 224 5309ft 0kts
07-Jan-22 17:26 35.035985 -106.618587 224 5309ft 0kts
07-Jan-22 17:27 35.035985 -106.618587 224 5309ft 0kts
07-Jan-22 17:28 35.035985 -106.618587 224 5309ft 0kts
07-Jan-22 17:29 35.035985 -106.618587 224 5309ft 0kts
07-Jan-22 17:30 35.035339 -106.618533 148 5309ft 11kts
07-Jan-22 17:31 35.034310 -106.618312 96 5309ft 1kts
07-Jan-22 17:32 35.035906 -106.616245 44 5312ft 10kts
07-Jan-22 17:33 35.037316 -106.614538 43 5312ft 4kts
07-Jan-22 17:34 35.040467 -106.617927 307 5309ft 15kts
07-Jan-22 17:35 35.042605 -106.621265 316 5298ft 0kts
07-Jan-22 17:36 35.042605 -106.621265 316 5298ft 0kts
07-Jan-22 17:37 35.042605 -106.621265 316 5298ft 0kts
07-Jan-22 17:38 35.042605 -106.621265 316 5298ft 0kts
07-Jan-22 17:39 35.042605 -106.621265 316 5298ft 0kts
07-Jan-22 17:40 35.042688 -106.621347 334 5297ft 0kts
07-Jan-22 17:41 35.043279 -106.621425 2 5297ft 17kts
07-Jan-22 17:42 35.044301 -106.613119 89 5313ft 92kts
07-Jan-22 17:43 35.040584 -106.575218 129 6227ft 110kts
07-Jan-22 17:44 35.022359 -106.585355 295 7256ft 115kts
07-Jan-22 17:45 35.037692 -106.620583 294 8167ft 126kts
07-Jan-22 17:46 35.054795 -106.657491 294 9201ft 121kts
07-Jan-22 17:47 35.070852 -106.695669 292 10104ft 122kts
07-Jan-22 17:48 35.086959 -106.733734 289 10876ft 128kts
07-Jan-22 17:49 35.113515 -106.764671 26 11041ft 168kts
07-Jan-22 17:50 35.160190 -106.750201 12 11024ft 181kts
07-Jan-22 17:51 35.207969 -106.730853 9 10989ft 177kts
07-Jan-22 17:52 35.254528 -106.710665 7 10940ft 174kts
07-Jan-22 17:53 35.301063 -106.696343 10 10932ft 175kts
07-Jan-22 17:54 35.347629 -106.682070 13 10971ft 173kts
07-Jan-22 17:55 35.392294 -106.659670 13 10986ft 172kts
07-Jan-22 17:56 35.438663 -106.643643 11 10996ft 171kts
07-Jan-22 17:57 35.484815 -106.627164 15 10946ft 176kts
07-Jan-22 17:58 35.516796 -106.589503 73 10985ft 175kts
07-Jan-22 17:59 35.526811 -106.531505 90 11001ft 178kts
07-Jan-22 18:00 35.527354 -106.470752 83 10992ft 179kts
07-Jan-22 18:01 35.528883 -106.410322 87 11083ft 176kts
07-Jan-22 18:02 35.533257 -106.349413 85 11039ft 183kts
07-Jan-22 18:03 35.536002 -106.286957 90 11051ft 189kts
07-Jan-22 18:04 35.537494 -106.221467 87 10952ft 190kts
07-Jan-22 18:05 35.537223 -106.157771 90 11059ft 185kts
07-Jan-22 18:06 35.540108 -106.093607 77 10997ft 189kts
07-Jan-22 18:07 35.577884 -106.064431 12 11678ft 148kts
07-Jan-22 18:08 35.618379 -106.051522 10 11973ft 161kts
07-Jan-22 18:09 35.663238 -106.041304 2 12011ft 169kts
07-Jan-22 18:10 35.710346 -106.031766 2 11971ft 175kts
07-Jan-22 18:11 35.758372 -106.024161 356 11983ft 171kts
07-Jan-22 18:12 35.806144 -106.018624 1 11993ft 172kts
07-Jan-22 18:13 35.853822 -106.013139 358 11998ft 172kts
07-Jan-22 18:14 35.901833 -106.007131 4 11994ft 173kts
07-Jan-22 18:15 35.949460 -106.002098 3 12034ft 171kts
07-Jan-22 18:16 35.996859 -105.993536 4 12036ft 174kts
07-Jan-22 18:17 36.045241 -105.986415 3 11958ft 175kts
07-Jan-22 18:18 36.092918 -105.977336 1 12002ft 174kts
07-Jan-22 18:19 36.140406 -105.971924 1 12041ft 173kts
07-Jan-22 18:20 36.187064 -105.964322 12 12133ft 174kts
07-Jan-22 18:22 36.235323 -105.958075 358 12114ft 168kts
07-Jan-22 18:23 36.283803 -105.954614 6 12071ft 168kts
07-Jan-22 18:24 36.319136 -105.913359 44 10874ft 186kts
07-Jan-22 18:25 36.353210 -105.867077 56 9277ft 176kts
07-Jan-22 18:26 36.377759 -105.819987 56 9013ft 148kts
07-Jan-22 18:27 36.398707 -105.778327 54 8816ft 147kts
07-Jan-22 18:28 36.424767 -105.736569 62 8163ft 143kts
07-Jan-22 18:29 36.446540 -105.693228 74 7616ft 136kts
07-Jan-22 18:30 36.457261 -105.653487 49 7701ft 138kts
07-Jan-22 18:31 36.465399 -105.658817 238 7279ft 120kts
07-Jan-22 18:32 36.458159 -105.673624 325 7092ft 0kts
07-Jan-22 18:33 36.458167 -105.673630 329 7092ft 0kts
07-Jan-22 18:34 36.459517 -105.672024 58 7092ft 0kts
07-Jan-22 18:35 36.459517 -105.672024 58 7092ft 0kts
07-Jan-22 18:36 36.459517 -105.672024 58 7092ft 0kts
07-Jan-22 18:37 36.459517 -105.672024 58 7092ft 0kts
07-Jan-22 18:38 36.459517 -105.672024 58 7092ft 0kts
07-Jan-22 18:39 36.459517 -105.672024 58 7092ft 0kts
07-Jan-22 18:40 36.459517 -105.672024 58 7092ft 0kts
07-Jan-22 18:41 36.459517 -105.672024 58 7092ft 0kts
07-Jan-22 18:42 36.459517 -105.672024 58 7092ft 0kts
07-Jan-22 18:43 36.459517 -105.672024 58 7092ft 0kts

Navigation Log

Ident Type
Flight plan parsing failed, navigation log unavailable